Hidden Valley Lake, CA (95467)

10:26 PM PDT on August 28, 2016 (GMT -0700)
Hidden Valley Lake | | Change Station

Elev 1083 ft 38.80 °N, 122.56 °W | Updated 15 seconds ago

Clear
Clear
68.5 °F
Feels Like 68.5 °F
N
0.0
Wind Variable Wind from WSW
Gusts 0.0 mph

Today
High -- | Low -- °F
--% Chance of Precip.
Yesterday
High -- | Low -- °F
Precip. -- in
Pressure 30.05 in
Visibility 10.0 miles
Clouds Clear
Dew Point 41 °F
Humidity 37%
Rainfall 0.00 in
Snow Depth Not available.
6:36 AM 7:45 PM
Waning Crescent, 11% visible
METAR KSTS 290453Z 13005KT 10SM CLR 13/11 A3007 RMK AO2 SLP176 T01330111
Pressure 30.05 in
Visibility 10.0 miles
Clouds Clear
Dew Point 41 °F
Humidity 37%
Rainfall 0.00 in
Snow Depth Not available.
6:36 AM 7:45 PM
Waning Crescent, 11% visible
METAR KSTS 290453Z 13005KT 10SM CLR 13/11 A3007 RMK AO2 SLP176 T01330111

10-Day Weather Forecast

Almanac

Astronomy

Aug. 28, 2016 Rise Set
Actual Time
Civil Twilight
Nautical Twilight
Astronomical Twilight
Moon
Length of Visible Light
Length of Day
Tomorrow will be .
, % of the Moon is Illuminated

Today's Extremes

State Highs State Lows

Community

WunderPhotos

Upload Photos

1,935,800 photos uploaded!

WunderBlog® & News

Nearby

Air Quality

  Air Quality AQ Index Pollutant
Not available.

Snow Depth

Station Depth Elevation

Earthquake Activity

City Distance Mag. Time & Date
Minimum magnitude displayed is 2.5.

Coastal Water Temperatures

Place Temperature

Stations

Nearby Weather Stations

Station Location Temp. Windchill Dew Point Humidity Wind Precip. Elev Updated Type
                   

Watches & Warnings

There are currently no watches in effect.